createdAt,value
2018-03-30T00:00:09.078Z,8.36
2018-03-30T00:01:09.137Z,8.44
2018-03-30T00:02:09.108Z,8.47
2018-03-30T00:03:09.127Z,8.26
2018-03-30T00:04:09.136Z,8.12
2018-03-30T00:05:09.156Z,8.07
2018-03-30T00:06:09.171Z,8.14
2018-03-30T00:07:09.194Z,8.30
2018-03-30T00:08:09.208Z,8.15
2018-03-30T00:09:09.225Z,7.90
2018-03-30T00:10:09.238Z,7.89
2018-03-30T00:11:09.256Z,8.04
2018-03-30T00:12:09.273Z,7.90
2018-03-30T00:13:09.290Z,8.10
2018-03-30T00:14:09.312Z,7.90
2018-03-30T00:15:09.329Z,7.82
2018-03-30T00:16:09.342Z,7.69
2018-03-30T00:17:09.356Z,8.02
2018-03-30T00:18:09.373Z,8.03
2018-03-30T00:19:09.389Z,7.94
2018-03-30T00:20:09.407Z,7.78
2018-03-30T00:21:09.420Z,8.26
2018-03-30T00:22:09.444Z,8.32
2018-03-30T00:23:09.457Z,7.99
2018-03-30T00:24:09.476Z,8.07
2018-03-30T00:25:09.495Z,8.08
2018-03-30T00:26:09.510Z,8.28
2018-03-30T00:27:09.530Z,8.29
2018-03-30T00:28:09.539Z,8.21
2018-03-30T00:29:09.561Z,8.29
2018-03-30T00:30:09.577Z,8.02
2018-03-30T00:31:09.597Z,7.79
2018-03-30T00:32:09.604Z,7.69
2018-03-30T00:33:09.627Z,7.49
2018-03-30T00:34:09.639Z,7.50
2018-03-30T00:35:09.659Z,7.45
2018-03-30T00:36:09.678Z,7.45
2018-03-30T00:37:09.696Z,7.40
2018-03-30T00:38:09.712Z,7.32
2018-03-30T00:39:09.727Z,7.32
2018-03-30T00:40:09.744Z,7.24
2018-03-30T00:41:09.760Z,7.19
2018-03-30T00:42:09.776Z,7.04
2018-03-30T00:43:09.790Z,7.16
2018-03-30T00:44:09.817Z,7.31
2018-03-30T00:45:09.836Z,7.24
2018-03-30T00:46:09.844Z,7.12
2018-03-30T00:47:09.859Z,7.05
2018-03-30T00:48:09.876Z,7.01
2018-03-30T00:49:09.891Z,7.08
2018-03-30T00:50:09.908Z,6.99
2018-03-30T00:51:09.940Z,6.91
2018-03-30T00:52:09.944Z,7.13
2018-03-30T00:53:09.964Z,7.12
2018-03-30T00:54:09.973Z,6.99
2018-03-30T00:55:09.990Z,7.20
2018-03-30T00:56:10.019Z,7.29
2018-03-30T00:57:10.026Z,7.58
2018-03-30T00:58:10.041Z,7.45
2018-03-30T00:59:10.059Z,7.29
2018-03-30T01:00:10.077Z,7.15
2018-03-30T01:01:10.093Z,7.24
2018-03-30T01:02:10.150Z,7.15
2018-03-30T01:03:10.159Z,7.12
2018-03-30T01:04:10.217Z,6.99
2018-03-30T01:05:10.162Z,7.04
2018-03-30T01:06:10.179Z,7.08
2018-03-30T01:07:10.194Z,7.20
2018-03-30T01:08:10.212Z,7.05
2018-03-30T01:09:10.237Z,7.02
2018-03-30T01:10:10.239Z,7.16
2018-03-30T01:11:10.267Z,7.16
2018-03-30T01:12:10.272Z,7.27
2018-03-30T01:13:10.293Z,7.17
2018-03-30T01:14:10.308Z,7.08
2018-03-30T01:15:10.328Z,6.95
2018-03-30T01:16:10.392Z,7.08
2018-03-30T01:17:10.428Z,7.04
2018-03-30T01:18:10.386Z,6.89
2018-03-30T01:19:10.398Z,6.91
2018-03-30T01:20:10.412Z,7.04
2018-03-30T01:21:10.435Z,7.12
2018-03-30T01:22:10.458Z,7.09
2018-03-30T01:23:10.486Z,7.04
2018-03-30T01:24:10.474Z,6.89
2018-03-30T01:25:10.509Z,6.98
2018-03-30T01:26:10.519Z,7.09
2018-03-30T01:27:10.525Z,7.13
2018-03-30T01:28:10.548Z,7.05
2018-03-30T01:29:10.555Z,6.95
2018-03-30T01:30:10.577Z,6.99
2018-03-30T01:31:10.591Z,7.07
2018-03-30T01:32:10.606Z,6.98
2018-03-30T01:33:10.620Z,7.01
2018-03-30T01:34:10.644Z,6.95
2018-03-30T01:35:10.657Z,6.84
2018-03-30T01:36:10.675Z,6.97
2018-03-30T01:37:10.696Z,6.98
2018-03-30T01:38:10.704Z,6.95
2018-03-30T01:39:10.723Z,7.22
2018-03-30T01:40:10.739Z,7.05
2018-03-30T01:41:10.762Z,6.97
2018-03-30T01:42:10.773Z,6.87
2018-03-30T01:43:10.789Z,6.89
2018-03-30T01:44:10.804Z,6.86
2018-03-30T01:45:10.833Z,6.81
2018-03-30T01:46:10.834Z,6.80
2018-03-30T01:47:10.851Z,6.79
2018-03-30T01:48:10.868Z,6.62
2018-03-30T01:49:10.886Z,6.62
2018-03-30T01:50:10.903Z,6.58
2018-03-30T01:51:10.920Z,6.61
2018-03-30T01:52:10.934Z,6.65
2018-03-30T01:53:10.954Z,6.63
2018-03-30T01:54:10.965Z,6.54
2018-03-30T01:55:10.985Z,6.56
2018-03-30T01:56:11.002Z,6.50
2018-03-30T01:57:11.013Z,6.44
2018-03-30T01:58:11.034Z,6.44
2018-03-30T01:59:11.063Z,6.40
2018-03-30T02:00:11.070Z,6.36
2018-03-30T02:01:11.082Z,6.46
2018-03-30T02:02:11.104Z,6.36
2018-03-30T02:03:11.116Z,6.35
2018-03-30T02:04:11.141Z,6.38
2018-03-30T02:05:11.146Z,6.28
2018-03-30T02:06:11.171Z,6.28
2018-03-30T02:07:11.181Z,6.22
2018-03-30T02:08:11.218Z,6.18
2018-03-30T02:09:11.218Z,6.11
2018-03-30T02:10:11.229Z,6.10
2018-03-30T02:11:11.266Z,6.11
2018-03-30T02:12:11.260Z,6.35
2018-03-30T02:13:11.276Z,6.38
2018-03-30T02:14:11.297Z,6.18
2018-03-30T02:15:11.314Z,6.13
2018-03-30T02:16:11.322Z,6.01
2018-03-30T02:17:11.340Z,6.13
2018-03-30T02:18:11.360Z,6.11
2018-03-30T02:19:11.371Z,6.11
2018-03-30T02:20:11.393Z,6.32
2018-03-30T02:21:11.407Z,6.56
2018-03-30T02:22:11.437Z,6.48
2018-03-30T02:23:11.440Z,6.68
2018-03-30T02:24:11.453Z,6.94
2018-03-30T02:25:11.468Z,7.01
2018-03-30T02:26:11.491Z,6.77
2018-03-30T02:27:11.507Z,6.65
2018-03-30T02:28:11.536Z,6.56
2018-03-30T02:29:11.531Z,6.33
2018-03-30T02:30:11.547Z,6.13
2018-03-30T02:31:11.567Z,6.07
2018-03-30T02:32:11.582Z,6.07
2018-03-30T02:33:11.606Z,6.13
2018-03-30T02:34:11.613Z,6.18
2018-03-30T02:35:11.631Z,6.28
2018-03-30T02:36:11.647Z,6.14
2018-03-30T02:37:11.670Z,6.13
2018-03-30T02:38:11.686Z,6.32
2018-03-30T02:39:11.695Z,6.38
2018-03-30T02:40:11.716Z,6.33
2018-03-30T02:41:11.727Z,6.28
2018-03-30T02:42:11.745Z,6.16
2018-03-30T02:43:11.760Z,6.14
2018-03-30T02:44:11.775Z,6.14
2018-03-30T02:45:11.790Z,6.11
2018-03-30T02:46:11.803Z,6.10
2018-03-30T02:47:11.822Z,6.06
2018-03-30T02:48:11.849Z,6.25
2018-03-30T02:49:11.870Z,6.22
2018-03-30T02:50:11.868Z,6.11
2018-03-30T02:51:11.884Z,6.09
2018-03-30T02:52:11.909Z,6.06
2018-03-30T02:53:11.931Z,6.07
2018-03-30T02:54:11.937Z,6.06
2018-03-30T02:55:11.951Z,6.03
2018-03-30T02:56:11.962Z,6.09
2018-03-30T02:57:11.987Z,6.30
2018-03-30T02:58:12.001Z,6.30
2018-03-30T02:59:12.021Z,6.10
2018-03-30T03:00:12.037Z,5.91
2018-03-30T03:01:12.048Z,5.81
2018-03-30T03:02:12.064Z,5.71
2018-03-30T03:03:12.075Z,5.73
2018-03-30T03:04:12.101Z,6.03
2018-03-30T03:05:12.295Z,6.18
2018-03-30T03:06:12.125Z,6.04
2018-03-30T03:07:12.140Z,5.83
2018-03-30T03:08:12.157Z,5.67
2018-03-30T03:09:12.170Z,5.55
2018-03-30T03:10:12.184Z,5.66
2018-03-30T03:11:12.215Z,5.59
2018-03-30T03:12:12.220Z,5.55
2018-03-30T03:13:12.250Z,5.91
2018-03-30T03:14:12.256Z,5.88
2018-03-30T03:15:12.266Z,5.75
2018-03-30T03:16:12.288Z,5.93
2018-03-30T03:17:12.409Z,6.35
2018-03-30T03:18:12.315Z,6.48
2018-03-30T03:19:12.328Z,6.33
2018-03-30T03:20:12.352Z,6.28
2018-03-30T03:21:12.379Z,6.07
2018-03-30T03:22:12.373Z,5.82
2018-03-30T03:23:12.399Z,5.82
2018-03-30T03:24:12.408Z,6.00
2018-03-30T03:25:12.422Z,5.70
2018-03-30T03:26:12.438Z,5.86
2018-03-30T03:27:12.465Z,6.26
2018-03-30T03:28:12.471Z,6.50
2018-03-30T03:29:12.589Z,6.33
2018-03-30T03:30:12.506Z,6.65
2018-03-30T03:31:12.519Z,6.59
2018-03-30T03:32:12.532Z,6.51
2018-03-30T03:33:12.554Z,6.66
2018-03-30T03:34:12.578Z,6.68
2018-03-30T03:35:12.582Z,6.80
2018-03-30T03:36:12.596Z,6.68
2018-03-30T03:37:12.616Z,6.66
2018-03-30T03:38:12.625Z,6.35
2018-03-30T03:39:12.647Z,6.26
2018-03-30T03:40:12.654Z,6.46
2018-03-30T03:41:12.674Z,6.63
2018-03-30T03:42:12.684Z,6.73
2018-03-30T03:43:12.705Z,6.83
2018-03-30T03:44:12.720Z,6.95
2018-03-30T03:45:12.735Z,6.94
2018-03-30T03:46:12.751Z,6.89
2018-03-30T03:47:12.779Z,6.97
2018-03-30T03:48:12.784Z,6.89
2018-03-30T03:49:12.797Z,6.71
2018-03-30T03:50:12.811Z,6.54
2018-03-30T03:51:12.832Z,6.38
2018-03-30T03:52:12.845Z,6.56
2018-03-30T03:53:12.863Z,6.66
2018-03-30T03:54:12.879Z,6.69
2018-03-30T03:55:12.893Z,6.65
2018-03-30T03:56:12.909Z,6.35
2018-03-30T03:57:12.921Z,6.14
2018-03-30T03:58:12.938Z,5.85
2018-03-30T03:59:12.963Z,5.70
2018-03-30T04:00:12.973Z,5.74
2018-03-30T04:01:12.985Z,5.78
2018-03-30T04:02:13.000Z,5.68
2018-03-30T04:03:13.012Z,5.64
2018-03-30T04:04:13.028Z,5.48
2018-03-30T04:05:13.046Z,5.66
2018-03-30T04:06:13.064Z,5.66
2018-03-30T04:07:13.081Z,5.64
2018-03-30T04:08:13.093Z,5.89
2018-03-30T04:09:13.105Z,6.35
2018-03-30T04:10:13.124Z,6.35
2018-03-30T04:11:13.145Z,6.09
2018-03-30T04:12:13.152Z,5.78
2018-03-30T04:13:13.169Z,5.59
2018-03-30T04:14:13.186Z,5.75
2018-03-30T04:15:13.199Z,5.59
2018-03-30T04:16:13.228Z,5.67
2018-03-30T04:17:13.233Z,5.74
2018-03-30T04:18:13.252Z,5.88
2018-03-30T04:19:13.268Z,5.82
2018-03-30T04:20:13.278Z,5.85
2018-03-30T04:21:13.292Z,5.86
2018-03-30T04:22:13.311Z,5.89
2018-03-30T04:23:13.326Z,6.10
2018-03-30T04:24:13.340Z,6.09
2018-03-30T04:25:13.357Z,6.35
2018-03-30T04:26:13.373Z,6.28
2018-03-30T04:27:13.420Z,5.96
2018-03-30T04:28:13.401Z,5.85
2018-03-30T04:29:13.432Z,5.81
2018-03-30T04:30:13.437Z,6.01
2018-03-30T04:31:13.457Z,5.83
2018-03-30T04:32:13.464Z,6.03
2018-03-30T04:33:13.482Z,6.51
2018-03-30T04:34:13.509Z,6.36
2018-03-30T04:35:13.521Z,6.09
2018-03-30T04:36:13.533Z,6.18
2018-03-30T04:37:13.540Z,5.92
2018-03-30T04:38:13.561Z,6.16
2018-03-30T04:39:13.578Z,6.21
2018-03-30T04:40:13.587Z,6.06
2018-03-30T04:41:13.609Z,5.93
2018-03-30T04:42:13.627Z,5.91
2018-03-30T04:43:13.637Z,6.00
2018-03-30T04:44:13.650Z,5.85
2018-03-30T04:45:13.677Z,5.93
2018-03-30T04:46:13.683Z,5.88
2018-03-30T04:47:13.698Z,6.01
2018-03-30T04:48:13.716Z,6.10
2018-03-30T04:49:13.729Z,5.98
2018-03-30T04:50:13.749Z,6.18
2018-03-30T04:51:13.758Z,6.41
2018-03-30T04:52:13.772Z,6.30
2018-03-30T04:53:13.786Z,6.44
2018-03-30T04:54:13.806Z,6.53
2018-03-30T04:55:13.852Z,6.43
2018-03-30T04:56:13.833Z,6.46
2018-03-30T04:57:13.859Z,6.50
2018-03-30T04:58:13.884Z,6.48
2018-03-30T04:59:13.957Z,6.62
2018-03-30T05:00:13.912Z,6.54
2018-03-30T05:01:13.917Z,6.46
2018-03-30T05:02:13.927Z,6.54
2018-03-30T05:03:13.953Z,6.56
2018-03-30T05:04:13.966Z,6.43
2018-03-30T05:05:13.983Z,6.33
2018-03-30T05:06:13.996Z,6.10
2018-03-30T05:07:14.005Z,6.25
2018-03-30T05:08:14.031Z,6.28
2018-03-30T05:09:14.036Z,6.28
2018-03-30T05:10:14.055Z,6.44
2018-03-30T05:11:14.069Z,6.48
2018-03-30T05:12:14.091Z,6.47
2018-03-30T05:13:14.106Z,6.47
2018-03-30T05:14:14.113Z,6.54
2018-03-30T05:15:14.137Z,6.40
2018-03-30T05:16:14.162Z,6.14
2018-03-30T05:17:14.170Z,6.30
2018-03-30T05:18:14.181Z,5.95
2018-03-30T05:19:14.195Z,5.45
2018-03-30T05:20:14.211Z,5.38
2018-03-30T05:21:14.225Z,5.70
2018-03-30T05:22:14.242Z,5.88
2018-03-30T05:23:14.255Z,5.83
2018-03-30T05:24:14.268Z,5.55
2018-03-30T05:25:14.284Z,5.14
2018-03-30T05:26:14.301Z,5.01
2018-03-30T05:27:14.317Z,5.04
2018-03-30T05:28:14.343Z,5.09
2018-03-30T05:29:14.349Z,4.94
2018-03-30T05:30:14.388Z,4.76
2018-03-30T05:31:14.383Z,4.64
2018-03-30T05:32:14.394Z,4.84
2018-03-30T05:33:14.422Z,4.77
2018-03-30T05:34:14.422Z,4.91
2018-03-30T05:35:14.446Z,4.72
2018-03-30T05:36:14.454Z,4.89
2018-03-30T05:37:14.469Z,5.04
2018-03-30T05:38:14.485Z,5.07
2018-03-30T05:39:14.516Z,5.04
2018-03-30T05:40:14.526Z,5.45
2018-03-30T05:41:14.543Z,5.52
2018-03-30T05:42:14.562Z,5.63
2018-03-30T05:43:14.567Z,5.57
2018-03-30T05:44:14.577Z,5.31
2018-03-30T05:45:14.593Z,5.31
2018-03-30T05:46:14.654Z,5.31
2018-03-30T05:47:14.626Z,5.20
2018-03-30T05:48:14.640Z,5.30
2018-03-30T05:49:14.655Z,5.40
2018-03-30T05:50:14.671Z,5.60
2018-03-30T05:51:14.692Z,5.55
2018-03-30T05:52:14.703Z,5.86
2018-03-30T05:53:14.719Z,6.13
2018-03-30T05:54:14.733Z,6.13
2018-03-30T05:55:14.750Z,6.32
2018-03-30T05:56:14.768Z,6.25
2018-03-30T05:57:14.783Z,6.54
2018-03-30T05:58:14.793Z,6.62
2018-03-30T05:59:14.813Z,6.53
2018-03-30T06:00:14.825Z,6.28
2018-03-30T06:01:14.836Z,6.03
2018-03-30T06:02:14.852Z,6.10
2018-03-30T06:03:14.868Z,6.06
2018-03-30T06:04:14.881Z,5.88
2018-03-30T06:05:14.904Z,6.04
2018-03-30T06:06:14.916Z,6.28
2018-03-30T06:07:14.931Z,6.51
2018-03-30T06:08:14.954Z,6.54
2018-03-30T06:09:14.968Z,6.63
2018-03-30T06:10:14.979Z,6.58
2018-03-30T06:11:14.994Z,6.56
2018-03-30T06:12:15.015Z,6.58
2018-03-30T06:13:15.021Z,6.63
2018-03-30T06:14:15.042Z,6.63
2018-03-30T06:15:15.056Z,6.09
2018-03-30T06:16:15.067Z,6.14
2018-03-30T06:17:15.086Z,6.50
2018-03-30T06:18:15.098Z,6.71
2018-03-30T06:19:15.153Z,6.30
2018-03-30T06:20:15.130Z,6.14
2018-03-30T06:21:15.147Z,5.95
2018-03-30T06:22:15.161Z,6.30
2018-03-30T06:23:15.198Z,6.36
2018-03-30T06:24:15.191Z,6.48
2018-03-30T06:25:15.206Z,6.53
2018-03-30T06:26:15.229Z,6.65
2018-03-30T06:27:15.238Z,6.32
2018-03-30T06:28:15.255Z,6.04
2018-03-30T06:29:15.271Z,6.00
2018-03-30T06:30:15.287Z,6.33
2018-03-30T06:31:15.331Z,6.58
2018-03-30T06:32:15.336Z,6.54
2018-03-30T06:33:15.332Z,6.61
2018-03-30T06:34:15.348Z,6.65
2018-03-30T06:35:15.366Z,6.68
2018-03-30T06:36:15.380Z,6.76
2018-03-30T06:37:15.396Z,6.71
2018-03-30T06:38:15.463Z,6.68
2018-03-30T06:39:15.424Z,6.83
2018-03-30T06:40:15.449Z,6.79
2018-03-30T06:41:15.456Z,6.95
2018-03-30T06:42:15.474Z,6.80
2018-03-30T06:43:15.487Z,6.91
2018-03-30T06:44:15.520Z,6.94
2018-03-30T06:45:15.525Z,6.91
2018-03-30T06:46:15.535Z,6.94
2018-03-30T06:47:15.559Z,6.89
2018-03-30T06:48:15.567Z,6.90
2018-03-30T06:49:15.588Z,7.08
2018-03-30T06:50:15.600Z,6.91
2018-03-30T06:51:15.615Z,7.02
2018-03-30T06:52:15.633Z,6.90
2018-03-30T06:53:15.642Z,6.73
2018-03-30T06:54:15.660Z,6.84
2018-03-30T06:55:15.674Z,6.81
2018-03-30T06:56:15.699Z,6.87
2018-03-30T06:57:15.710Z,6.65
2018-03-30T06:58:15.759Z,6.66
2018-03-30T06:59:15.746Z,6.59
2018-03-30T07:00:15.763Z,6.80
2018-03-30T07:01:15.776Z,6.95
2018-03-30T07:02:15.789Z,7.04
2018-03-30T07:03:15.810Z,6.98
2018-03-30T07:04:15.818Z,6.98
2018-03-30T07:05:15.834Z,7.08
2018-03-30T07:06:15.853Z,7.04
2018-03-30T07:07:15.916Z,7.17
2018-03-30T07:08:15.881Z,7.31
2018-03-30T07:09:15.899Z,7.26
2018-03-30T07:10:15.918Z,7.31
2018-03-30T07:11:15.933Z,7.34
2018-03-30T07:12:15.945Z,7.29
2018-03-30T07:13:15.969Z,7.32
2018-03-30T07:14:15.979Z,7.19
2018-03-30T07:15:16.002Z,7.04
2018-03-30T07:16:16.012Z,7.05
2018-03-30T07:17:16.029Z,7.15
2018-03-30T07:18:16.098Z,7.12
2018-03-30T07:19:16.132Z,7.05
2018-03-30T07:20:16.073Z,7.08
2018-03-30T07:21:16.095Z,7.01
2018-03-30T07:22:16.110Z,7.05
2018-03-30T07:23:16.129Z,7.17
2018-03-30T07:24:16.148Z,7.17
2018-03-30T07:25:16.160Z,7.16
2018-03-30T07:26:16.224Z,7.29
2018-03-30T07:27:16.187Z,7.34
2018-03-30T07:28:16.208Z,7.44
2018-03-30T07:29:16.222Z,7.47
2018-03-30T07:30:16.296Z,7.59
2018-03-30T07:31:16.277Z,7.72
2018-03-30T07:32:16.278Z,7.81
2018-03-30T07:33:16.294Z,7.85
2018-03-30T07:34:16.313Z,7.90
2018-03-30T07:35:16.324Z,7.99
2018-03-30T07:36:16.341Z,8.22
2018-03-30T07:37:16.388Z,8.29
2018-03-30T07:38:16.382Z,8.21
2018-03-30T07:39:16.390Z,8.25
2018-03-30T07:40:16.406Z,8.28
2018-03-30T07:41:16.441Z,8.26
2018-03-30T07:42:16.454Z,8.40
2018-03-30T07:43:16.461Z,8.57
2018-03-30T07:44:16.483Z,8.93
2018-03-30T07:45:16.493Z,9.02
2018-03-30T07:46:16.514Z,9.10
2018-03-30T07:47:16.526Z,9.02
2018-03-30T07:48:16.537Z,9.02
2018-03-30T07:49:16.559Z,9.18
2018-03-30T07:50:16.578Z,9.06
2018-03-30T07:51:16.593Z,8.99
2018-03-30T07:52:16.619Z,9.10
2018-03-30T07:53:16.624Z,9.12
2018-03-30T07:54:16.659Z,9.28
2018-03-30T07:55:16.665Z,9.49
2018-03-30T07:56:16.680Z,9.60
2018-03-30T07:57:16.691Z,9.68
2018-03-30T07:58:16.718Z,9.34
2018-03-30T07:59:16.731Z,9.46
2018-03-30T08:00:16.743Z,9.48
2018-03-30T08:01:16.776Z,9.67
2018-03-30T08:02:16.789Z,9.64
2018-03-30T08:03:16.799Z,9.78
2018-03-30T08:04:16.812Z,9.68
2018-03-30T08:05:16.841Z,9.96
2018-03-30T08:06:16.866Z,10.07
2018-03-30T08:07:16.872Z,10.12
2018-03-30T08:08:16.974Z,9.94
2018-03-30T08:09:16.904Z,9.99
2018-03-30T08:10:16.926Z,10.15
2018-03-30T08:11:16.939Z,9.93
2018-03-30T08:12:16.957Z,10.03
2018-03-30T08:13:16.990Z,10.26
2018-03-30T08:14:16.999Z,10.30
2018-03-30T08:15:17.016Z,10.30
2018-03-30T08:16:17.033Z,10.10
2018-03-30T08:17:17.046Z,10.10
2018-03-30T08:18:17.066Z,9.79
2018-03-30T08:19:17.083Z,9.97
2018-03-30T08:20:17.099Z,10.03
2018-03-30T08:21:17.132Z,10.28
2018-03-30T08:22:17.143Z,10.17
2018-03-30T08:23:17.160Z,10.10
2018-03-30T08:24:17.179Z,10.37
2018-03-30T08:25:17.190Z,10.51
2018-03-30T08:26:17.210Z,10.70
2018-03-30T08:27:17.228Z,10.74
2018-03-30T08:28:17.245Z,10.58
2018-03-30T08:29:17.264Z,10.58
2018-03-30T08:30:17.360Z,10.81
2018-03-30T08:31:17.316Z,10.83
2018-03-30T08:32:17.318Z,10.86
2018-03-30T08:33:17.335Z,10.91
2018-03-30T08:34:17.355Z,10.88
2018-03-30T08:35:17.378Z,10.84
2018-03-30T08:36:17.399Z,10.70
2018-03-30T08:37:17.412Z,11.03
2018-03-30T08:38:17.432Z,11.06
2018-03-30T08:39:17.445Z,11.10
2018-03-30T08:40:17.480Z,11.20
2018-03-30T08:41:17.486Z,11.32
2018-03-30T08:42:17.502Z,11.43
2018-03-30T08:43:17.534Z,11.54
2018-03-30T08:44:17.552Z,11.53
2018-03-30T08:45:17.585Z,11.68
2018-03-30T08:46:17.577Z,11.70
2018-03-30T08:47:17.603Z,11.50
2018-03-30T08:48:17.617Z,11.46
2018-03-30T08:49:17.643Z,11.61
2018-03-30T08:50:17.657Z,11.74
2018-03-30T08:51:17.672Z,11.75
2018-03-30T08:52:17.695Z,11.71
2018-03-30T08:53:17.728Z,11.80
2018-03-30T08:54:17.729Z,11.62
2018-03-30T08:55:17.757Z,11.83
2018-03-30T08:56:17.764Z,11.99
2018-03-30T08:57:17.788Z,12.16
2018-03-30T08:58:17.820Z,12.09
2018-03-30T08:59:17.819Z,12.01
2018-03-30T09:00:17.838Z,12.06
2018-03-30T09:01:17.875Z,12.05
2018-03-30T09:02:17.917Z,12.12
2018-03-30T09:03:17.900Z,12.21
2018-03-30T09:04:17.918Z,12.11
2018-03-30T09:05:17.940Z,12.13
2018-03-30T09:06:17.956Z,12.24
2018-03-30T09:07:17.979Z,12.38
2018-03-30T09:08:17.994Z,12.38
2018-03-30T09:09:18.047Z,12.27
2018-03-30T09:10:18.042Z,12.19
2018-03-30T09:11:18.062Z,12.13
2018-03-30T09:12:18.078Z,12.37
2018-03-30T09:13:18.093Z,12.57
2018-03-30T09:14:18.118Z,12.46
2018-03-30T09:15:18.136Z,12.41
2018-03-30T09:16:18.152Z,12.49
2018-03-30T09:17:18.173Z,12.70
2018-03-30T09:18:18.192Z,12.69
2018-03-30T09:19:18.209Z,12.59
2018-03-30T09:20:18.232Z,12.75
2018-03-30T09:21:18.257Z,12.70
2018-03-30T09:22:18.271Z,12.66
2018-03-30T09:23:18.301Z,12.66
2018-03-30T09:24:18.315Z,12.60
2018-03-30T09:25:18.336Z,12.62
2018-03-30T09:26:18.366Z,12.69
2018-03-30T09:27:18.378Z,12.70
2018-03-30T09:28:18.388Z,12.79
2018-03-30T09:29:18.411Z,12.66
2018-03-30T09:30:18.434Z,12.88
2018-03-30T09:31:18.457Z,12.93
2018-03-30T09:32:18.473Z,12.84
2018-03-30T09:33:18.499Z,12.79
2018-03-30T09:34:18.515Z,12.89
2018-03-30T09:35:18.576Z,12.96
2018-03-30T09:36:18.559Z,12.88
2018-03-30T09:37:18.574Z,12.99
2018-03-30T09:38:18.594Z,12.92
2018-03-30T09:39:18.622Z,12.97
2018-03-30T09:40:18.630Z,12.93
2018-03-30T09:41:18.653Z,12.99
2018-03-30T09:42:18.674Z,13.03
2018-03-30T09:43:18.692Z,13.15
2018-03-30T09:44:18.715Z,13.17
2018-03-30T09:45:18.909Z,13.18
2018-03-30T09:46:18.792Z,13.30
2018-03-30T09:47:18.776Z,13.15
2018-03-30T09:48:18.795Z,13.29
2018-03-30T09:49:18.825Z,13.54
2018-03-30T09:50:18.842Z,13.43
2018-03-30T09:51:18.861Z,13.52
2018-03-30T09:52:18.892Z,13.52
2018-03-30T09:53:18.898Z,13.62
2018-03-30T09:54:18.917Z,13.61
2018-03-30T09:55:18.950Z,13.67
2018-03-30T09:56:18.964Z,13.69
2018-03-30T09:57:18.981Z,13.65
2018-03-30T09:58:19.000Z,13.79
2018-03-30T09:59:19.016Z,13.95
2018-03-30T10:00:19.042Z,14.02
2018-03-30T10:01:19.062Z,14.04
2018-03-30T10:02:19.084Z,14.14
2018-03-30T10:03:19.108Z,14.21
2018-03-30T10:04:19.270Z,14.17
2018-03-30T10:05:19.151Z,14.35
2018-03-30T10:06:19.167Z,14.38
2018-03-30T10:07:19.187Z,14.46
2018-03-30T10:08:19.207Z,14.44
2018-03-30T10:09:19.224Z,14.43
2018-03-30T10:10:19.257Z,14.47
2018-03-30T10:11:19.279Z,14.49
2018-03-30T10:12:19.285Z,14.34
2018-03-30T10:13:19.317Z,14.44
2018-03-30T10:14:19.333Z,14.44
2018-03-30T10:15:19.349Z,14.53
2018-03-30T10:16:19.382Z,14.57
2018-03-30T10:17:19.391Z,14.72
2018-03-30T10:18:19.416Z,14.83
2018-03-30T10:19:19.437Z,14.81
2018-03-30T10:20:19.472Z,14.78
2018-03-30T10:21:19.479Z,14.95
2018-03-30T10:22:19.500Z,14.87
2018-03-30T10:23:19.519Z,15.01
2018-03-30T10:24:19.542Z,15.03
2018-03-30T10:25:19.561Z,15.17
2018-03-30T10:26:19.585Z,15.08
2018-03-30T10:27:19.608Z,15.09
2018-03-30T10:28:19.626Z,15.08
2018-03-30T10:29:19.649Z,14.98
2018-03-30T10:30:19.683Z,15.17
2018-03-30T10:31:19.694Z,15.13
2018-03-30T10:32:19.722Z,15.24
2018-03-30T10:33:19.733Z,15.35
2018-03-30T10:34:19.752Z,15.30
2018-03-30T10:35:19.831Z,15.26
2018-03-30T10:36:19.806Z,15.36
2018-03-30T10:37:19.823Z,15.36
2018-03-30T10:38:19.838Z,15.45
2018-03-30T10:39:19.865Z,15.51
2018-03-30T10:40:19.885Z,15.46
2018-03-30T10:41:19.912Z,15.49
2018-03-30T10:42:19.928Z,15.42
2018-03-30T10:43:19.949Z,15.33
2018-03-30T10:44:19.973Z,15.48
2018-03-30T10:45:19.995Z,15.46
2018-03-30T10:46:20.014Z,15.57
2018-03-30T10:47:20.048Z,15.51
2018-03-30T10:48:20.071Z,15.57
2018-03-30T10:49:20.081Z,15.59
2018-03-30T10:50:20.104Z,15.64
2018-03-30T10:51:20.133Z,15.49
2018-03-30T10:52:20.148Z,15.51
2018-03-30T10:53:20.176Z,15.49
2018-03-30T10:54:20.194Z,15.45
2018-03-30T10:55:20.219Z,15.45
2018-03-30T10:56:20.234Z,15.54
2018-03-30T10:57:20.321Z,15.66
2018-03-30T10:58:20.280Z,15.46
2018-03-30T10:59:20.305Z,15.63
2018-03-30T11:00:20.364Z,15.67
2018-03-30T11:01:20.355Z,15.67
2018-03-30T11:02:20.372Z,15.56
2018-03-30T11:03:20.406Z,15.66
2018-03-30T11:04:20.427Z,15.66
2018-03-30T11:05:20.495Z,15.78
2018-03-30T11:06:20.462Z,15.66
2018-03-30T11:07:20.497Z,15.86
2018-03-30T11:08:20.509Z,15.84
2018-03-30T11:09:20.528Z,15.76
2018-03-30T11:10:20.555Z,15.63
2018-03-30T11:11:20.574Z,15.72
2018-03-30T11:12:20.613Z,15.68
2018-03-30T11:13:20.624Z,15.59
2018-03-30T11:14:20.653Z,15.68
2018-03-30T11:15:20.664Z,15.61
2018-03-30T11:16:20.697Z,15.67
2018-03-30T11:17:20.715Z,15.75
2018-03-30T11:18:20.732Z,15.68
2018-03-30T11:19:20.758Z,15.78
2018-03-30T11:20:20.780Z,15.81
2018-03-30T11:21:20.796Z,15.79
2018-03-30T11:22:20.822Z,15.81
2018-03-30T11:23:20.853Z,15.74
2018-03-30T11:24:20.864Z,15.81
2018-03-30T11:25:20.890Z,15.76
2018-03-30T11:26:20.913Z,15.67
2018-03-30T11:27:20.937Z,15.68
2018-03-30T11:28:20.990Z,15.63
2018-03-30T11:29:20.980Z,15.72
2018-03-30T11:30:21.018Z,15.74
2018-03-30T11:31:21.029Z,15.78
2018-03-30T11:32:21.046Z,15.79
2018-03-30T11:33:21.073Z,15.86
2018-03-30T11:34:21.098Z,15.92
2018-03-30T11:35:21.116Z,15.92
2018-03-30T11:36:21.143Z,15.89
2018-03-30T11:37:21.197Z,15.89
2018-03-30T11:38:21.185Z,15.94
2018-03-30T11:39:21.209Z,16.04
2018-03-30T11:40:21.236Z,16.06
2018-03-30T11:41:21.251Z,15.92
2018-03-30T11:42:21.279Z,15.97
2018-03-30T11:43:21.301Z,15.86
2018-03-30T11:44:21.322Z,15.84
2018-03-30T11:45:21.342Z,15.85
2018-03-30T11:46:21.383Z,15.75
2018-03-30T11:47:21.392Z,15.85
2018-03-30T11:48:21.429Z,15.79
2018-03-30T11:49:21.434Z,15.79
2018-03-30T11:50:21.459Z,15.68
2018-03-30T11:51:21.482Z,15.66
2018-03-30T11:52:21.584Z,15.70
2018-03-30T11:53:21.530Z,15.63
2018-03-30T11:54:21.548Z,15.59
2018-03-30T11:55:21.576Z,15.56
2018-03-30T11:56:21.597Z,15.63
2018-03-30T11:57:21.624Z,15.59
2018-03-30T11:58:21.641Z,15.59
2018-03-30T11:59:21.663Z,15.56
2018-03-30T12:00:21.692Z,15.57
2018-03-30T12:01:21.725Z,15.64
2018-03-30T12:02:21.732Z,15.56
2018-03-30T12:03:21.769Z,15.64
2018-03-30T12:04:21.787Z,15.64
2018-03-30T12:05:21.802Z,15.78
2018-03-30T12:06:21.822Z,15.66
2018-03-30T12:07:21.877Z,15.67
2018-03-30T12:08:21.874Z,15.72
2018-03-30T12:09:21.902Z,15.60
2018-03-30T12:10:21.922Z,15.68
2018-03-30T12:11:21.938Z,15.57
2018-03-30T12:12:22.015Z,15.67
2018-03-30T12:13:21.976Z,15.67
2018-03-30T12:14:22.072Z,15.60
2018-03-30T12:15:22.026Z,15.52
2018-03-30T12:16:22.049Z,15.54
2018-03-30T12:17:22.072Z,15.49
2018-03-30T12:18:22.091Z,15.54
2018-03-30T12:19:22.118Z,15.49
2018-03-30T12:20:22.148Z,15.48
2018-03-30T12:21:22.168Z,15.49
2018-03-30T12:22:22.187Z,15.51
2018-03-30T12:23:22.208Z,15.45
2018-03-30T12:24:22.237Z,15.39
2018-03-30T12:25:22.250Z,15.36
2018-03-30T12:26:22.274Z,15.41
2018-03-30T12:27:22.302Z,15.42
2018-03-30T12:28:22.320Z,15.38
2018-03-30T12:29:22.341Z,15.41
2018-03-30T12:30:22.359Z,15.42
2018-03-30T12:31:22.381Z,15.42
2018-03-30T12:32:22.403Z,15.49
2018-03-30T12:33:22.426Z,15.48
2018-03-30T12:34:22.463Z,15.51
2018-03-30T12:35:22.473Z,15.48
2018-03-30T12:36:22.520Z,15.39
2018-03-30T12:37:22.518Z,15.56
2018-03-30T12:38:22.545Z,15.51
2018-03-30T12:39:22.566Z,15.43
2018-03-30T12:40:22.614Z,15.31
2018-03-30T12:41:22.709Z,15.45
2018-03-30T12:42:22.628Z,15.45
2018-03-30T12:43:22.651Z,15.39
2018-03-30T12:44:22.678Z,15.39
2018-03-30T12:45:22.697Z,15.39
2018-03-30T12:46:22.719Z,15.38
2018-03-30T12:47:22.739Z,15.35
2018-03-30T12:48:22.773Z,15.38
2018-03-30T12:49:22.812Z,15.39
2018-03-30T12:50:22.803Z,15.49
2018-03-30T12:51:22.896Z,15.51
2018-03-30T12:52:22.852Z,15.42
2018-03-30T12:53:22.872Z,15.48
2018-03-30T12:54:22.901Z,15.51
2018-03-30T12:55:22.916Z,15.52
2018-03-30T12:56:22.945Z,15.39
2018-03-30T12:57:22.964Z,15.48
2018-03-30T12:58:22.985Z,15.59
2018-03-30T12:59:23.015Z,15.63
2018-03-30T13:00:23.027Z,15.78
2018-03-30T13:01:23.056Z,15.86
2018-03-30T13:02:23.085Z,15.96
2018-03-30T13:03:23.097Z,15.97
2018-03-30T13:04:23.128Z,16.07
2018-03-30T13:05:23.141Z,16.09
2018-03-30T13:06:23.164Z,15.96
2018-03-30T13:07:23.186Z,15.89
2018-03-30T13:08:23.213Z,15.94